Time;durP1;ratioP1;P1;durP2;ratioP2;P2;SDS_P1;SDS_P2;PMS_P1;PMS_P2;Temp;Humidity;BMP_temperature;BMP_pressure;BME280_temperature;BME280_humidity;BME280_pressure;Samples;Min_cycle;Max_cycle;Signal;HPM_P1;HPM_P2
2022/02/25 00:00:01;;;;;;;44.97;5.97;;;3.20;99.90;;;;;;5036513;28;20029;-75
2022/02/25 00:02:27;;;;;;;34.42;7.55;;;3.10;99.90;;;;;;5036358;28;20079;-75
2022/02/25 00:04:53;;;;;;;44.92;6.15;;;3.10;99.90;;;;;;5036164;28;20042;-75
2022/02/25 00:07:18;;;;;;;42.75;10.10;;;3.10;99.90;;;;;;5018473;28;20061;-75
2022/02/25 00:09:44;;;;;;;37.15;5.10;;;3.10;99.90;;;;;;5036580;28;20029;-75
2022/02/25 00:12:09;;;;;;;41.92;5.68;;;3.10;99.90;;;;;;5036253;28;20021;-75
2022/02/25 00:14:35;;;;;;;34.38;4.60;;;3.10;99.90;;;;;;5036073;28;20025;-75
2022/02/25 00:17:00;;;;;;;29.08;4.85;;;3.10;99.90;;;;;;5036405;28;20096;-75
2022/02/25 00:19:26;;;;;;;28.95;4.93;;;3.10;99.90;;;;;;5036010;28;20040;-75
2022/02/25 00:21:52;;;;;;;37.60;7.35;;;3.00;99.90;;;;;;5036041;28;20033;-75
2022/02/25 00:24:17;;;;;;;36.90;8.05;;;3.00;99.90;;;;;;5036173;28;20029;-75
2022/02/25 00:26:43;;;;;;;33.80;6.68;;;2.90;99.90;;;;;;5036003;28;20040;-76
2022/02/25 00:29:08;;;;;;;40.95;5.35;;;2.90;99.90;;;;;;5035772;28;20022;-75
2022/02/25 00:31:34;;;;;;;35.00;6.53;;;3.00;99.90;;;;;;5035855;28;20026;-75
2022/02/25 00:33:59;;;;;;;40.40;5.22;;;3.00;99.90;;;;;;5036259;28;20022;-75
2022/02/25 00:36:26;;;;;;;38.67;4.63;;;3.00;99.90;;;;;;5036000;28;20025;-75
2022/02/25 00:38:52;;;;;;;45.17;5.05;;;2.90;99.90;;;;;;5018244;28;20382;-75
2022/02/25 00:41:18;;;;;;;37.58;3.58;;;2.90;99.90;;;;;;5035769;28;20026;-75
2022/02/25 00:43:43;;;;;;;35.20;4.88;;;3.00;99.90;;;;;;5035601;28;20021;-74
2022/02/25 00:46:09;;;;;;;42.63;4.85;;;3.00;99.90;;;;;;5035508;28;20025;-75
2022/02/25 00:48:35;;;;;;;31.95;3.50;;;3.10;99.90;;;;;;5035620;28;20393;-77
2022/02/25 00:51:01;;;;;;;28.85;3.63;;;3.20;99.90;;;;;;5035426;28;20037;-75
2022/02/25 00:53:26;;;;;;;43.83;7.00;;;3.30;99.90;;;;;;5035433;28;20033;-75
2022/02/25 00:55:52;;;;;;;51.13;5.35;;;3.50;99.90;;;;;;5035307;28;20022;-75
2022/02/25 00:58:19;;;;;;;34.85;4.90;;;3.60;99.90;;;;;;5035457;28;20033;-75
2022/02/25 01:00:45;;;;;;;38.92;5.63;;;3.70;99.90;;;;;;5035244;28;20021;-75
2022/02/25 01:03:10;;;;;;;61.55;7.28;;;3.80;99.90;;;;;;5035256;28;20047;-75
2022/02/25 01:05:36;;;;;;;50.55;6.03;;;3.80;99.90;;;;;;5035121;28;20451;-75
2022/02/25 01:08:06;;;;;;;54.35;6.10;;;3.70;99.90;;;;;;5035115;28;20048;-75
2022/02/25 01:10:33;;;;;;;58.90;5.35;;;3.70;99.90;;;;;;5034588;28;20025;-75
2022/02/25 01:12:59;;;;;;;44.00;4.90;;;3.80;99.90;;;;;;5035063;28;20022;-74
2022/02/25 01:15:24;;;;;;;35.97;4.53;;;3.70;99.90;;;;;;5035149;28;20104;-75
2022/02/25 01:17:50;;;;;;;40.83;6.18;;;3.70;99.90;;;;;;5034915;28;20037;-75
2022/02/25 01:20:17;;;;;;;45.13;6.15;;;3.70;99.90;;;;;;5034809;28;20033;-74
2022/02/25 01:22:44;;;;;;;35.03;6.53;;;3.80;99.90;;;;;;5035183;28;20373;-75
2022/02/25 01:25:10;;;;;;;39.95;5.05;;;3.80;99.90;;;;;;5034901;28;20026;-74
2022/02/25 01:27:36;;;;;;;54.35;4.55;;;3.90;99.90;;;;;;5034882;28;20576;-75
2022/02/25 01:30:04;;;;;;;39.50;5.93;;;3.90;99.90;;;;;;5034690;28;20026;-75
2022/02/25 01:32:29;;;;;;;49.85;5.10;;;4.10;99.90;;;;;;5034547;28;20025;-75
2022/02/25 01:34:56;;;;;;;25.77;2.90;;;4.10;99.90;;;;;;5034539;28;20029;-72
2022/02/25 01:37:22;;;;;;;25.98;2.85;;;3.60;99.90;;;;;;5034606;28;20021;-73
2022/02/25 01:39:47;;;;;;;18.30;2.05;;;2.90;99.90;;;;;;5034866;28;20386;-73
2022/02/25 01:42:13;;;;;;;16.00;2.05;;;2.50;99.90;;;;;;5016896;28;20026;-72
2022/02/25 01:44:41;;;;;;;19.90;2.83;;;2.30;99.90;;;;;;5034422;28;20029;-72
2022/02/25 01:47:08;;;;;;;25.67;3.90;;;2.10;99.90;;;;;;5034418;28;20017;-72
2022/02/25 01:49:33;;;;;;;27.80;4.32;;;2.20;99.90;;;;;;5034255;28;20022;-72
2022/02/25 01:52:02;;;;;;;36.55;4.43;;;2.40;99.90;;;;;;5034347;28;20018;-72
2022/02/25 01:54:29;;;;;;;31.50;4.32;;;2.50;99.90;;;;;;5034282;28;20028;-72
2022/02/25 01:56:57;;;;;;;31.80;4.78;;;2.50;99.90;;;;;;5034834;28;20053;-73
2022/02/25 01:59:23;;;;;;;50.00;5.68;;;2.60;99.90;;;;;;5034215;28;20036;-73
2022/02/25 02:01:48;;;;;;;31.48;4.72;;;2.70;99.90;;;;;;5034508;28;20030;-73
2022/02/25 02:04:14;;;;;;;93.82;27.13;;;2.80;99.90;;;;;;5033848;28;20037;-72
2022/02/25 02:06:40;;;;;;;53.33;8.93;;;2.90;99.90;;;;;;5034087;28;20029;-72
2022/02/25 02:09:07;;;;;;;52.25;8.32;;;3.10;99.90;;;;;;5034199;28;20092;-72
2022/02/25 02:11:44;;;;;;;56.00;8.23;;;3.20;99.90;;;;;;5034006;28;20537;-72
2022/02/25 02:14:13;;;;;;;58.20;10.07;;;3.40;99.90;;;;;;5034162;28;20423;-72
2022/02/25 02:16:40;;;;;;;80.30;12.65;;;3.50;99.90;;;;;;5034226;28;20469;-72
2022/02/25 02:19:06;;;;;;;66.13;10.60;;;3.70;99.90;;;;;;5034067;28;20036;-72
2022/02/25 02:21:34;;;;;;;63.95;9.20;;;3.70;99.90;;;;;;5034272;28;20355;-73
2022/02/25 02:24:01;;;;;;;71.22;11.23;;;3.90;99.90;;;;;;5033713;28;20017;-73
2022/02/25 02:26:28;;;;;;;68.05;9.43;;;4.10;99.90;;;;;;5034085;28;20018;-73
2022/02/25 02:28:54;;;;;;;69.45;11.43;;;4.10;99.90;;;;;;5033858;28;20029;-73
2022/02/25 02:31:19;;;;;;;80.50;13.50;;;4.10;99.90;;;;;;5033750;28;20029;-73
2022/02/25 02:33:45;;;;;;;86.82;14.05;;;4.10;99.90;;;;;;5034094;28;20505;-74
2022/02/25 02:36:11;;;;;;;94.13;14.75;;;4.10;99.90;;;;;;5033834;28;20054;-74
2022/02/25 02:38:38;;;;;;;69.55;10.52;;;4.10;99.90;;;;;;5033793;28;20057;-74
2022/02/25 02:41:05;;;;;;;67.05;8.65;;;4.10;99.90;;;;;;5015964;28;20026;-74
2022/02/25 02:43:31;;;;;;;57.15;9.02;;;4.00;99.90;;;;;;5033840;28;20091;-74
2022/02/25 02:45:56;;;;;;;67.10;8.57;;;3.80;99.90;;;;;;5033782;28;20033;-74
2022/02/25 02:48:23;;;;;;;65.55;10.05;;;3.80;99.90;;;;;;5033822;28;20033;-73
2022/02/25 02:50:48;;;;;;;43.47;7.63;;;3.80;99.90;;;;;;5033917;28;20025;-73
2022/02/25 02:53:14;;;;;;;77.65;9.40;;;3.70;99.90;;;;;;5033879;28;20040;-73
2022/02/25 02:55:41;;;;;;;65.38;11.32;;;3.70;99.90;;;;;;5033590;28;20496;-73
2022/02/25 02:58:07;;;;;;;79.03;9.68;;;3.80;99.90;;;;;;5033661;28;20105;-73
2022/02/25 03:00:34;;;;;;;59.60;9.93;;;3.90;99.90;;;;;;5033555;28;20030;-73
2022/02/25 03:02:59;;;;;;;75.28;10.93;;;3.80;99.90;;;;;;5033774;28;20025;-73
2022/02/25 03:05:25;;;;;;;96.13;17.63;;;3.90;99.90;;;;;;5034018;28;20555;-73
2022/02/25 03:07:51;;;;;;;89.00;8.77;;;3.90;99.90;;;;;;5034077;28;20021;-73
2022/02/25 03:10:17;;;;;;;92.57;14.60;;;4.00;99.90;;;;;;5033768;28;20025;-73
2022/02/25 03:12:43;;;;;;;76.38;11.25;;;4.00;99.90;;;;;;5034007;28;20025;-73
2022/02/25 03:15:10;;;;;;;63.78;13.05;;;4.00;99.90;;;;;;5034157;28;20493;-72
2022/02/25 03:17:37;;;;;;;41.05;6.53;;;4.00;99.90;;;;;;5034763;28;20040;-72
2022/02/25 03:20:05;;;;;;;66.38;10.02;;;4.10;99.90;;;;;;5033836;28;20378;-73
2022/02/25 03:22:31;;;;;;;60.92;10.70;;;4.20;99.90;;;;;;5033553;28;20109;-73
2022/02/25 03:24:57;;;;;;;58.75;7.13;;;4.20;99.90;;;;;;5033305;28;20129;-73
2022/02/25 03:27:23;;;;;;;34.70;6.40;;;4.10;99.90;;;;;;5033618;28;20489;-72
2022/02/25 03:29:49;;;;;;;57.38;9.35;;;4.00;99.90;;;;;;5033431;28;20041;-72
2022/02/25 03:32:16;;;;;;;51.50;7.25;;;3.70;99.90;;;;;;5033698;28;20030;-73
2022/02/25 03:34:42;;;;;;;75.47;13.90;;;3.70;99.90;;;;;;5036838;28;20037;-73
2022/02/25 03:37:08;;;;;;;66.47;12.88;;;3.60;99.90;;;;;;5036798;28;20437;-73
2022/02/25 03:39:34;;;;;;;49.38;9.13;;;3.50;99.90;;;;;;5036732;28;20144;-72
2022/02/25 03:42:00;;;;;;;90.45;18.48;;;3.60;99.90;;;;;;5036741;28;20053;-73
2022/02/25 03:44:25;;;;;;;52.47;7.55;;;3.50;99.90;;;;;;5036522;28;20127;-73
2022/02/25 03:46:51;;;;;;;47.35;6.53;;;3.40;99.90;;;;;;5036713;28;20540;-73
2022/02/25 03:49:17;;;;;;;67.00;9.32;;;3.40;99.90;;;;;;5018750;28;20030;-73
2022/02/25 03:51:43;;;;;;;55.63;8.27;;;3.40;99.90;;;;;;5036499;28;20064;-72
2022/02/25 03:54:09;;;;;;;48.05;6.65;;;3.40;99.90;;;;;;5036429;28;20017;-72
2022/02/25 03:56:35;;;;;;;52.85;7.68;;;3.40;99.90;;;;;;5036409;28;20081;-72
2022/02/25 03:59:00;;;;;;;66.50;8.77;;;3.50;99.90;;;;;;5036585;28;20382;-72
2022/02/25 04:01:26;;;;;;;64.85;8.50;;;3.60;99.90;;;;;;5036360;28;20048;-72
2022/02/25 04:03:52;;;;;;;63.85;8.85;;;3.80;99.90;;;;;;5036438;28;20058;-73
2022/02/25 04:06:17;;;;;;;65.47;8.70;;;3.90;99.90;;;;;;5018563;28;20032;-73
2022/02/25 04:08:43;;;;;;;67.50;7.63;;;3.90;99.90;;;;;;5036337;28;20039;-72
2022/02/25 04:11:09;;;;;;;52.65;10.00;;;4.00;99.90;;;;;;5036596;28;20029;-72
2022/02/25 04:13:36;;;;;;;63.22;7.82;;;4.00;99.90;;;;;;5036249;28;20033;-72
2022/02/25 04:16:02;;;;;;;55.35;7.88;;;4.10;99.90;;;;;;5036090;28;20482;-72
2022/02/25 04:18:27;;;;;;;71.70;12.18;;;4.10;99.90;;;;;;5036026;28;20060;-72
2022/02/25 04:20:53;;;;;;;49.75;9.30;;;4.20;99.90;;;;;;5036075;28;20068;-73
2022/02/25 04:23:19;;;;;;;42.92;6.57;;;4.30;99.90;;;;;;5036243;28;20380;-72
2022/02/25 04:25:44;;;;;;;57.53;7.20;;;4.30;99.90;;;;;;5036172;28;20025;-73
2022/02/25 04:28:10;;;;;;;54.05;6.65;;;4.20;99.90;;;;;;5035851;28;20374;-73
2022/02/25 04:30:37;;;;;;;63.30;8.88;;;4.20;99.90;;;;;;5035664;28;20040;-73
2022/02/25 04:33:03;;;;;;;62.15;7.57;;;4.30;99.90;;;;;;5035691;28;20028;-73
2022/02/25 04:35:28;;;;;;;75.32;9.13;;;4.20;99.90;;;;;;5035630;28;20382;-73
2022/02/25 04:37:54;;;;;;;46.10;6.88;;;4.20;99.90;;;;;;5035896;28;20021;-73
2022/02/25 04:40:20;;;;;;;51.25;7.03;;;4.20;99.90;;;;;;5035623;28;20104;-73
2022/02/25 04:42:46;;;;;;;45.67;6.70;;;4.10;99.90;;;;;;5035633;28;20389;-73
2022/02/25 04:45:12;;;;;;;53.40;6.38;;;4.20;99.90;;;;;;5034802;28;20397;-73
2022/02/25 04:47:39;;;;;;;52.42;8.30;;;4.20;99.90;;;;;;5035760;28;20029;-73
2022/02/25 04:50:06;;;;;;;60.92;7.53;;;4.30;99.90;;;;;;5035709;28;20457;-73
2022/02/25 04:52:31;;;;;;;74.78;10.55;;;4.30;99.90;;;;;;5035495;28;20517;-73
2022/02/25 04:54:57;;;;;;;61.53;9.70;;;4.40;99.90;;;;;;5017668;28;20025;-73
2022/02/25 04:57:22;;;;;;;59.42;8.15;;;4.50;99.90;;;;;;5035281;28;20018;-73
2022/02/25 04:59:48;;;;;;;63.67;9.80;;;4.50;99.90;;;;;;5035529;28;20040;-73
2022/02/25 05:02:13;;;;;;;60.67;8.50;;;4.50;99.90;;;;;;5035135;28;20474;-73
2022/02/25 05:04:39;;;;;;;63.05;8.35;;;4.50;99.90;;;;;;5035247;28;20037;-73
2022/02/25 05:07:04;;;;;;;59.40;11.50;;;4.50;99.90;;;;;;5035228;28;20096;-73
2022/02/25 05:09:30;;;;;;;69.18;11.18;;;4.50;99.90;;;;;;5034931;28;20022;-73
2022/02/25 05:11:56;;;;;;;59.03;9.20;;;4.50;99.90;;;;;;5035527;28;20029;-73
2022/02/25 05:22:33;;;;;;;61.22;8.05;;;4.50;99.90;;;;;;5034925;28;19936;-73
2022/02/25 05:24:59;;;;;;;61.97;11.07;;;4.60;99.90;;;;;;5034605;28;20030;-73
2022/02/25 05:27:25;;;;;;;75.07;10.05;;;4.50;99.90;;;;;;5034920;28;20029;-73
2022/02/25 05:29:50;;;;;;;58.42;8.70;;;4.60;99.90;;;;;;5034572;28;20032;-73
2022/02/25 05:32:16;;;;;;;56.03;7.55;;;4.60;99.90;;;;;;5034934;28;20575;-73
2022/02/25 05:34:42;;;;;;;63.42;9.98;;;4.60;99.90;;;;;;5034556;28;20022;-73
2022/02/25 05:37:08;;;;;;;49.05;7.65;;;4.60;99.90;;;;;;5034588;28;20473;-73
2022/02/25 05:39:34;;;;;;;51.33;8.55;;;4.60;99.90;;;;;;5034439;28;20041;-73
2022/02/25 05:41:59;;;;;;;55.65;8.05;;;4.60;99.90;;;;;;5034503;28;20036;-72
2022/02/25 05:44:25;;;;;;;94.70;10.50;;;4.60;99.90;;;;;;5034581;28;20026;-73
2022/02/25 05:46:51;;;;;;;53.83;7.15;;;4.60;99.90;;;;;;5034539;28;20057;-73
2022/02/25 05:49:16;;;;;;;29.85;5.00;;;4.50;99.90;;;;;;5034469;28;20096;-73
2022/02/25 05:51:42;;;;;;;33.35;5.63;;;4.40;99.90;;;;;;5034875;28;20060;-72
2022/02/25 05:54:07;;;;;;;31.55;4.57;;;4.20;99.90;;;;;;5034297;28;20053;-73
2022/02/25 05:56:33;;;;;;;36.90;4.35;;;4.10;99.90;;;;;;5016093;28;20025;-73
2022/02/25 05:58:59;;;;;;;30.73;4.68;;;3.90;99.90;;;;;;5016606;28;20021;-72
2022/02/25 06:01:25;;;;;;;42.40;6.68;;;3.80;99.90;;;;;;5034255;28;20539;-72
2022/02/25 06:03:50;;;;;;;54.42;5.97;;;3.70;99.90;;;;;;5034078;28;20033;-72
2022/02/25 06:06:16;;;;;;;63.25;6.03;;;3.70;99.90;;;;;;5016451;28;20033;-73
2022/02/25 06:08:42;;;;;;;50.03;9.15;;;3.70;99.90;;;;;;5034421;28;20444;-73
2022/02/25 06:11:07;;;;;;;73.82;9.35;;;3.70;99.90;;;;;;5034066;28;20103;-73
2022/02/25 06:13:33;;;;;;;73.30;8.25;;;3.70;99.90;;;;;;5034225;28;20079;-73
2022/02/25 06:15:59;;;;;;;62.17;8.02;;;3.90;99.90;;;;;;5034016;28;20025;-73
2022/02/25 06:18:24;;;;;;;66.90;8.80;;;4.00;99.90;;;;;;5034088;28;20048;-73
2022/02/25 06:20:50;;;;;;;81.55;12.30;;;4.10;99.90;;;;;;5034333;28;20029;-73
2022/02/25 06:23:18;;;;;;;66.47;9.07;;;4.20;99.90;;;;;;5034429;28;20041;-73
2022/02/25 06:25:43;;;;;;;47.63;5.50;;;4.20;99.90;;;;;;5033915;28;20017;-72
2022/02/25 06:28:09;;;;;;;53.65;9.25;;;4.00;99.90;;;;;;5033811;28;20417;-73
2022/02/25 06:30:35;;;;;;;55.60;7.93;;;4.00;99.90;;;;;;5034088;28;20079;-72
2022/02/25 06:33:00;;;;;;;59.83;8.75;;;3.90;99.90;;;;;;5033906;28;20040;-73
2022/02/25 06:35:28;;;;;;;73.47;10.10;;;4.10;99.90;;;;;;5033791;28;20029;-73
2022/02/25 06:37:54;;;;;;;79.95;7.13;;;4.20;99.90;;;;;;5033875;28;20057;-73
2022/02/25 06:40:20;;;;;;;93.72;10.20;;;4.20;99.90;;;;;;5033757;28;20541;-73
2022/02/25 06:42:46;;;;;;;57.10;7.38;;;4.30;99.90;;;;;;5033760;28;20072;-73
2022/02/25 06:45:11;;;;;;;69.93;7.93;;;4.40;99.90;;;;;;5033962;28;20038;-73
2022/02/25 06:47:38;;;;;;;76.25;8.45;;;4.50;99.90;;;;;;5033725;28;20026;-73
2022/02/25 06:50:04;;;;;;;53.42;8.68;;;4.40;99.90;;;;;;5033498;28;20025;-73
2022/02/25 06:52:30;;;;;;;71.93;9.57;;;4.50;99.90;;;;;;5033744;28;20079;-73
2022/02/25 06:54:55;;;;;;;63.20;9.07;;;4.50;99.90;;;;;;5033662;28;20021;-73
2022/02/25 06:57:21;;;;;;;67.03;6.85;;;4.60;99.90;;;;;;5033828;28;20084;-73
2022/02/25 06:59:47;;;;;;;75.78;8.45;;;4.60;99.90;;;;;;5033685;28;20029;-72
2022/02/25 07:02:13;;;;;;;12.43;2.65;;;4.40;99.90;;;;;;5033559;28;20104;-71
2022/02/25 07:04:38;;;;;;;6.45;0.98;;;3.30;99.90;;;;;;5033403;28;20037;-71
2022/02/25 07:07:04;;;;;;;4.47;0.80;;;2.30;99.90;;;;;;5034248;28;20460;-71
2022/02/25 07:09:29;;;;;;;10.52;1.17;;;1.80;99.90;;;;;;5037055;28;20040;-71
2022/02/25 07:11:55;;;;;;;2.28;0.90;;;1.70;99.90;;;;;;5037298;28;20393;-71
2022/02/25 07:14:21;;;;;;;8.38;0.80;;;1.60;99.90;;;;;;5037156;28;20375;-71
2022/02/25 07:16:46;;;;;;;6.22;0.80;;;1.60;99.90;;;;;;5037242;28;20477;-71
2022/02/25 07:19:12;;;;;;;14.30;1.52;;;1.70;99.90;;;;;;5037448;28;20039;-71
2022/02/25 07:21:37;;;;;;;17.35;2.53;;;1.70;99.90;;;;;;5037651;28;20038;-71
2022/02/25 07:24:06;;;;;;;29.05;3.28;;;1.80;99.90;;;;;;5037069;28;20021;-72
2022/02/25 07:26:31;;;;;;;26.60;2.55;;;2.00;99.90;;;;;;5037277;28;20464;-72
2022/02/25 07:28:57;;;;;;;24.08;3.47;;;2.10;99.90;;;;;;5036993;28;20121;-72
2022/02/25 07:31:23;;;;;;;18.77;2.47;;;2.20;99.90;;;;;;5036817;28;20049;-72
2022/02/25 07:33:49;;;;;;;16.50;2.63;;;2.40;99.90;;;;;;5036873;28;20021;-72
2022/02/25 07:36:14;;;;;;;20.45;2.25;;;2.40;99.90;;;;;;5036826;28;20436;-72
2022/02/25 07:38:40;;;;;;;10.57;1.92;;;2.50;99.90;;;;;;5037161;28;20554;-72
2022/02/25 07:41:06;;;;;;;20.05;2.10;;;2.60;99.90;;;;;;5037063;28;20485;-72
2022/02/25 07:43:32;;;;;;;18.65;2.65;;;2.70;99.90;;;;;;5036775;28;20021;-72
2022/02/25 07:45:58;;;;;;;17.48;2.10;;;2.70;99.90;;;;;;5037184;28;20373;-72
2022/02/25 07:48:23;;;;;;;20.98;2.47;;;2.80;99.90;;;;;;5036882;28;20025;-73
2022/02/25 07:50:49;;;;;;;38.10;10.18;;;2.90;99.90;;;;;;5036751;28;20030;-72
2022/02/25 07:53:16;;;;;;;59.40;17.52;;;3.00;99.90;;;;;;5036559;28;20108;-73
2022/02/25 07:55:42;;;;;;;31.27;8.48;;;3.00;99.90;;;;;;5036631;28;20075;-73
2022/02/25 07:58:07;;;;;;;27.85;4.90;;;3.10;99.90;;;;;;5018652;28;20029;-73
2022/02/25 08:00:33;;;;;;;60.55;18.35;;;3.20;99.90;;;;;;5036685;28;20029;-72
2022/02/25 08:03:04;;;;;;;77.00;20.02;;;3.10;99.90;;;;;;5036622;28;20101;-72
2022/02/25 08:05:31;;;;;;;107.05;33.72;;;3.10;99.90;;;;;;5036312;28;20041;-73
2022/02/25 08:07:58;;;;;;;51.03;13.52;;;3.10;99.90;;;;;;5036824;28;20030;-72
2022/02/25 08:10:23;;;;;;;73.60;23.98;;;3.20;99.90;;;;;;5036427;28;20040;-72
2022/02/25 08:12:49;;;;;;;56.42;16.02;;;3.30;99.90;;;;;;5036685;28;20108;-72
2022/02/25 08:15:15;;;;;;;42.72;8.45;;;3.30;99.90;;;;;;5036219;28;20474;-72
2022/02/25 08:17:41;;;;;;;34.25;7.60;;;3.30;99.90;;;;;;5018343;28;20138;-72
2022/02/25 08:20:08;;;;;;;60.67;13.18;;;3.40;99.90;;;;;;5036076;28;20040;-72
2022/02/25 08:22:34;;;;;;;41.90;9.45;;;3.40;99.90;;;;;;5036540;28;20025;-72
2022/02/25 08:25:00;;;;;;;40.47;5.85;;;3.40;99.90;;;;;;5036002;28;20033;-72
2022/02/25 08:27:25;;;;;;;48.92;7.80;;;3.50;99.90;;;;;;5035937;28;20033;-72
2022/02/25 08:29:51;;;;;;;51.67;7.25;;;3.60;99.90;;;;;;5035822;28;20444;-72
2022/02/25 08:32:17;;;;;;;55.40;8.77;;;3.60;99.90;;;;;;5035866;28;20075;-73
2022/02/25 08:34:42;;;;;;;60.05;7.30;;;3.70;99.90;;;;;;5035929;28;20029;-73
2022/02/25 08:37:08;;;;;;;57.92;7.05;;;3.70;99.90;;;;;;5035700;28;20028;-73
2022/02/25 08:39:34;;;;;;;21.83;5.70;;;3.80;99.90;;;;;;5035792;28;20013;-72
2022/02/25 08:42:00;;;;;;;25.85;3.42;;;3.70;99.90;;;;;;5035776;28;20041;-73
2022/02/25 08:44:25;;;;;;;14.13;1.85;;;3.80;99.90;;;;;;5035523;28;20501;-73
2022/02/25 08:46:51;;;;;;;9.35;1.35;;;3.80;99.90;;;;;;5035673;28;20021;-73
2022/02/25 08:49:17;;;;;;;14.30;1.70;;;3.90;99.90;;;;;;5035351;28;20532;-73
2022/02/25 08:51:43;;;;;;;18.75;2.17;;;4.00;99.90;;;;;;5035389;28;20026;-73
2022/02/25 08:54:12;;;;;;;10.20;2.33;;;4.10;99.90;;;;;;5035325;28;20024;-73
2022/02/25 08:56:38;;;;;;;15.65;2.25;;;4.10;99.90;;;;;;5035380;28;20028;-73
2022/02/25 08:59:05;;;;;;;24.58;2.33;;;4.10;99.90;;;;;;5035341;28;20022;-73
2022/02/25 09:01:32;;;;;;;16.55;3.47;;;4.00;99.90;;;;;;5017540;28;20056;-73
2022/02/25 09:04:00;;;;;;;14.30;2.45;;;3.90;99.90;;;;;;5035054;28;20569;-73
2022/02/25 09:06:27;;;;;;;33.50;3.65;;;4.00;99.90;;;;;;5106919;22;20041;-72
2022/02/25 09:08:53;;;;;;;21.65;2.92;;;4.10;99.90;;;;;;5055048;28;20021;-72
2022/02/25 09:11:19;;;;;;;22.13;3.95;;;4.20;99.90;;;;;;5036745;28;20499;-72
2022/02/25 09:13:45;;;;;;;17.02;1.60;;;4.40;99.90;;;;;;5054580;28;20534;-72
2022/02/25 09:16:11;;;;;;;12.25;1.77;;;4.40;99.90;;;;;;5054481;28;20439;-72
2022/02/25 09:18:37;;;;;;;12.23;1.83;;;4.40;99.90;;;;;;5054470;28;20048;-72
2022/02/25 09:21:03;;;;;;;19.63;2.30;;;4.60;99.90;;;;;;5054671;28;20162;-72
2022/02/25 09:23:29;;;;;;;11.75;1.55;;;4.80;99.90;;;;;;5054452;28;20052;-72
2022/02/25 09:25:54;;;;;;;12.07;2.13;;;4.90;99.90;;;;;;5054257;28;20029;-72
2022/02/25 09:28:22;;;;;;;16.48;2.83;;;4.70;99.90;;;;;;5054275;28;20024;-72
2022/02/25 09:30:47;;;;;;;24.98;3.72;;;4.60;99.90;;;;;;5053555;28;20028;-72
2022/02/25 09:33:13;;;;;;;28.50;2.40;;;4.50;99.90;;;;;;5054453;28;20028;-72
2022/02/25 09:35:38;;;;;;;19.85;2.95;;;4.50;99.90;;;;;;5054164;28;20023;-72
2022/02/25 09:38:04;;;;;;;31.77;3.22;;;4.40;99.90;;;;;;5054051;28;20496;-72
2022/02/25 09:40:30;;;;;;;25.73;2.78;;;4.30;99.90;;;;;;5054273;28;20491;-71
2022/02/25 09:42:55;;;;;;;25.13;3.45;;;4.20;99.90;;;;;;5054010;28;20029;-72
2022/02/25 09:45:21;;;;;;;30.40;3.50;;;4.20;99.90;;;;;;5054220;28;20029;-71
2022/02/25 09:47:47;;;;;;;22.20;4.13;;;4.10;99.90;;;;;;5054135;28;20033;-71
2022/02/25 09:50:16;;;;;;;34.70;3.78;;;4.10;99.90;;;;;;5053747;28;20025;-71
2022/02/25 09:52:42;;;;;;;30.80;5.60;;;4.20;99.90;;;;;;5036022;28;20025;-71
2022/02/25 09:55:18;;;;;;;35.33;3.95;;;4.20;99.90;;;;;;5053858;28;20078;-71
2022/02/25 09:57:44;;;;;;;22.88;3.67;;;4.20;99.90;;;;;;5054106;28;20087;-71
2022/02/25 10:00:10;;;;;;;18.10;2.53;;;4.30;99.90;;;;;;5054067;28;20037;-71
2022/02/25 10:02:46;;;;;;;17.17;2.50;;;4.40;99.90;;;;;;5053712;28;20557;-71
2022/02/25 10:05:14;;;;;;;23.80;2.60;;;4.40;99.90;;;;;;5035540;28;20068;-71
2022/02/25 10:07:40;;;;;;;23.80;3.03;;;4.50;99.90;;;;;;5053710;28;20087;-71
2022/02/25 10:10:06;;;;;;;25.02;2.38;;;4.70;99.90;;;;;;5053863;28;20033;-71
2022/02/25 10:12:32;;;;;;;19.67;2.85;;;4.80;99.90;;;;;;5053802;28;20044;-72
2022/02/25 10:14:59;;;;;;;15.20;2.70;;;5.00;99.90;;;;;;5053967;28;20027;-72
2022/02/25 10:17:26;;;;;;;9.20;2.00;;;5.10;99.90;;;;;;5053652;28;20473;-72
2022/02/25 10:20:03;;;;;;;27.85;3.92;;;5.30;99.90;;;;;;5053296;28;20125;-72
2022/02/25 10:22:41;;;;;;;14.82;2.20;;;5.30;99.90;;;;;;5054122;28;20025;-72
2022/02/25 10:25:11;;;;;;;20.08;2.85;;;5.40;99.90;;;;;;5053342;28;20029;-72
2022/02/25 10:27:38;;;;;;;15.75;2.47;;;5.50;99.90;;;;;;5053675;28;20056;-72
2022/02/25 10:30:07;;;;;;;19.15;2.17;;;5.40;99.90;;;;;;5053659;28;20025;-72
2022/02/25 10:32:34;;;;;;;20.83;2.20;;;5.20;99.90;;;;;;5053621;28;20380;-72
2022/02/25 10:35:17;;;;;;;21.35;3.47;;;5.10;99.90;;;;;;5053523;28;20093;-71
2022/02/25 10:38:03;;;;;;;10.65;2.15;;;4.80;99.90;;;;;;5052938;28;20460;-71
2022/02/25 10:40:34;;;;;;;8.20;1.25;;;4.50;99.90;;;;;;5053381;28;20092;-72
2022/02/25 10:43:00;;;;;;;22.50;2.15;;;4.40;99.90;;;;;;5056817;28;20048;-72
2022/02/25 10:45:36;;;;;;;19.13;2.42;;;4.40;99.90;;;;;;5057574;28;20025;-72
2022/02/25 10:48:16;;;;;;;24.15;2.95;;;4.60;99.90;;;;;;5057690;28;20033;-72
2022/02/25 10:50:46;;;;;;;35.40;3.25;;;4.90;99.90;;;;;;5057319;28;20025;-72
2022/02/25 10:53:13;;;;;;;30.05;3.33;;;5.10;99.90;;;;;;5057613;28;20070;-72
2022/02/25 10:55:40;;;;;;;27.33;4.32;;;5.10;99.90;;;;;;5057241;28;20017;-72
2022/02/25 10:58:06;;;;;;;28.75;3.75;;;5.30;99.90;;;;;;5057471;28;20017;-73
2022/02/25 11:00:32;;;;;;;19.75;3.47;;;5.40;99.90;;;;;;5057434;28;20040;-71
2022/02/25 11:03:01;;;;;;;18.83;5.28;;;5.40;99.90;;;;;;5056955;28;20024;-71
2022/02/25 11:05:27;;;;;;;30.08;3.05;;;5.50;99.90;;;;;;5056845;28;20044;-71
2022/02/25 11:07:55;;;;;;;28.70;2.47;;;5.70;99.90;;;;;;5056802;28;20029;-72
2022/02/25 11:10:23;;;;;;;14.57;2.45;;;5.90;99.90;;;;;;5056616;28;20081;-70
2022/02/25 11:12:50;;;;;;;12.25;2.20;;;5.90;99.90;;;;;;5057034;28;20164;-71
2022/02/25 11:15:18;;;;;;;22.63;4.50;;;5.60;99.90;;;;;;5056559;28;20427;-72
2022/02/25 11:17:46;;;;;;;22.23;4.35;;;5.40;99.90;;;;;;5056868;28;20025;-72
2022/02/25 11:20:13;;;;;;;25.13;5.25;;;5.30;99.90;;;;;;5056542;28;20421;-71
2022/02/25 11:22:41;;;;;;;15.82;2.80;;;5.10;99.90;;;;;;5056296;28;20032;-71
2022/02/25 11:25:17;;;;;;;16.05;2.95;;;4.90;99.90;;;;;;5056381;28;20039;-72
2022/02/25 11:27:46;;;;;;;20.08;4.80;;;4.70;99.90;;;;;;5056692;28;20056;-72
2022/02/25 11:30:27;;;;;;;12.32;1.73;;;4.70;99.90;;;;;;5056345;28;20037;-72
2022/02/25 11:33:00;;;;;;;17.52;3.20;;;5.10;99.90;;;;;;5056651;28;20025;-72
2022/02/25 11:35:31;;;;;;;13.88;2.83;;;5.30;99.90;;;;;;5056475;28;20410;-72
2022/02/25 11:38:07;;;;;;;20.48;2.25;;;5.30;99.90;;;;;;5056252;28;20036;-72
2022/02/25 11:41:05;;;;;;;15.30;3.22;;;5.40;99.90;;;;;;5056749;28;20524;-72
2022/02/25 11:43:40;;;;;;;20.33;4.13;;;5.50;99.90;;;;;;5047167;28;20098;-72
2022/02/25 11:46:34;;;;;;;20.33;2.47;;;5.90;99.90;;;;;;5056186;28;20021;-73
2022/02/25 11:49:01;;;;;;;28.80;3.25;;;6.40;99.90;;;;;;5051405;28;20076;-73
2022/02/25 11:51:29;;;;;;;21.20;3.13;;;6.60;99.90;;;;;;5056139;28;20116;-73
2022/02/25 11:54:28;;;;;;;26.08;3.17;;;6.50;99.90;;;;;;5037494;28;20025;-73
2022/02/25 11:56:56;;;;;;;32.05;5.63;;;6.40;99.90;;;;;;5055830;28;20021;-72
2022/02/25 11:59:33;;;;;;;23.25;3.72;;;6.10;99.90;;;;;;5056348;28;20461;-71
2022/02/25 12:02:12;;;;;;;20.67;2.90;;;5.50;99.90;;;;;;5055970;28;20380;-72
2022/02/25 12:04:39;;;;;;;28.42;3.60;;;5.10;99.90;;;;;;5055847;28;20028;-72
2022/02/25 12:07:13;;;;;;;27.92;3.38;;;5.10;99.90;;;;;;5056160;28;20029;-73
2022/02/25 12:09:52;;;;;;;20.00;4.45;;;5.20;99.90;;;;;;5056251;28;20068;-73
2022/02/25 12:12:23;;;;;;;36.28;5.45;;;5.50;99.90;;;;;;5056218;28;20033;-73
2022/02/25 12:15:09;;;;;;;19.77;3.15;;;5.60;99.90;;;;;;5056242;28;20028;-73
2022/02/25 12:17:56;;;;;;;36.97;5.25;;;5.50;99.90;;;;;;5024268;28;20029;-73
2022/02/25 12:20:41;;;;;;;34.55;3.55;;;5.50;99.90;;;;;;5038082;28;20032;-73
2022/02/25 12:23:22;;;;;;;34.15;5.05;;;5.50;99.90;;;;;;5056144;28;20477;-73
2022/02/25 12:26:00;;;;;;;19.60;3.65;;;5.70;99.90;;;;;;5055591;28;20031;-72
2022/02/25 12:28:30;;;;;;;34.00;3.97;;;6.10;99.90;;;;;;5056214;28;20032;-73
2022/02/25 12:31:04;;;;;;;25.38;4.22;;;5.90;99.90;;;;;;5055292;28;20021;-74
2022/02/25 12:33:42;;;;;;;31.77;4.05;;;5.50;99.90;;;;;;5055246;28;20025;-74
2022/02/25 12:36:28;;;;;;;26.90;4.18;;;5.40;99.90;;;;;;5055228;28;20029;-75
2022/02/25 12:39:10;;;;;;;13.98;2.50;;;5.20;99.90;;;;;;5038390;28;20099;-72
2022/02/25 12:41:46;;;;;;;22.42;3.38;;;5.10;99.90;;;;;;5037123;28;20025;-72
2022/02/25 12:44:13;;;;;;;14.23;1.77;;;5.20;99.90;;;;;;5055258;28;20036;-72
2022/02/25 12:46:54;;;;;;;12.15;1.65;;;5.30;99.90;;;;;;5036937;28;20136;-72
2022/02/25 12:49:22;;;;;;;19.33;2.63;;;5.60;99.90;;;;;;5037004;28;20036;-72
2022/02/25 12:51:49;;;;;;;5.55;1.55;;;6.20;99.90;;;;;;5054772;28;20051;-74
2022/02/25 12:54:19;;;;;;;22.55;3.03;;;6.90;99.90;;;;;;5055164;28;20024;-75